Wapella, Illinois
Current Conditions -  °F | °C
As of 5:56 PM on Thursday 27 Nov 2014 (Local Time) from KBMI Reporting Station
Light Snow Light Snow  
Wind Chill: 11°   Ceiling: 2500
Heat Index: 21°   Visibility: 10mi
Dew Point: 15°   Wind: 9mph
Humidity: 78%   Direction: 300°WNW
Pressure: 30.43"   Gusts: NA
Location:  40.22°N, 88.96°W
Report Text: KBMI 272356Z 30008KT 10SM -SN OVC025 M06/M09 A3043 RMK AO2 51010 60000 T10611094 11027 21061 SNB11 P0000 SLP331
Loading
Personal Weather Stations






























Interactive Weather Map New forecast layout! Learn more

10-Day Weather Forecast

Advertisements
Track Severe Weather on mobile